createdAt,value
2023-01-04T00:01:30.546Z,101498.56
2023-01-04T00:03:56.995Z,101480.78
2023-01-04T00:06:23.814Z,101479.03
2023-01-04T00:08:50.311Z,101478.50
2023-01-04T00:11:19.462Z,101477.84
2023-01-04T00:13:46.910Z,101477.41
2023-01-04T00:16:19.806Z,101473.13
2023-01-04T00:18:46.917Z,101462.44
2023-01-04T00:21:16.159Z,101462.41
2023-01-04T00:23:44.804Z,101452.59
2023-01-04T00:26:13.512Z,101449.66
2023-01-04T00:28:40.125Z,101453.50
2023-01-04T00:31:09.715Z,101450.09
2023-01-04T00:33:36.569Z,101451.75
2023-01-04T00:36:11.724Z,101454.72
2023-01-04T00:38:39.208Z,101446.25
2023-01-04T00:41:07.372Z,101442.19
2023-01-04T00:43:34.002Z,101452.03
2023-01-04T00:46:01.615Z,101440.25
2023-01-04T00:48:29.256Z,101442.28
2023-01-04T00:50:55.938Z,101437.44
2023-01-04T00:53:22.429Z,101417.72
2023-01-04T00:55:49.020Z,101421.81
2023-01-04T00:58:15.484Z,101415.94
2023-01-04T01:00:42.028Z,101403.59
2023-01-04T01:03:08.704Z,101401.41
2023-01-04T01:05:36.257Z,101401.84
2023-01-04T01:08:23.595Z,101392.13
2023-01-04T01:10:50.745Z,101391.00
2023-01-04T01:13:17.277Z,101392.34
2023-01-04T01:15:43.805Z,101376.69
2023-01-04T01:18:10.244Z,101377.81
2023-01-04T01:20:42.392Z,101366.50
2023-01-04T01:23:08.812Z,101364.66
2023-01-04T01:25:35.264Z,101361.88
2023-01-04T01:28:01.765Z,101359.50
2023-01-04T01:30:28.183Z,101350.50
2023-01-04T01:32:54.656Z,101345.09
2023-01-04T01:35:21.075Z,101336.78
2023-01-04T01:37:47.512Z,101329.31
2023-01-04T01:40:14.069Z,101333.38
2023-01-04T01:42:40.516Z,101330.25
2023-01-04T01:45:29.269Z,101326.03
2023-01-04T01:48:01.678Z,101314.53
2023-01-04T01:51:03.985Z,101324.34
2023-01-04T01:53:34.217Z,101306.25
2023-01-04T01:56:01.429Z,101303.31
2023-01-04T01:58:32.740Z,101300.84
2023-01-04T02:00:59.477Z,101298.16
2023-01-04T02:03:37.074Z,101295.41
2023-01-04T02:06:08.449Z,101293.03
2023-01-04T02:08:37.446Z,101286.03
2023-01-04T02:11:04.788Z,101279.28
2023-01-04T02:13:52.591Z,101277.06
2023-01-04T02:16:37.680Z,101270.06
2023-01-04T02:19:38.061Z,101258.94
2023-01-04T02:22:20.505Z,101255.63
2023-01-04T02:24:56.181Z,101253.53
2023-01-04T02:27:34.726Z,101248.38
2023-01-04T02:30:38.608Z,101238.16
2023-01-04T02:33:29.795Z,101232.16
2023-01-04T02:36:14.469Z,101215.00
2023-01-04T02:39:21.222Z,101206.16
2023-01-04T02:41:51.552Z,101192.00
2023-01-04T02:44:44.150Z,101181.94
2023-01-04T02:47:17.309Z,101180.09
2023-01-04T02:50:05.186Z,101173.28
2023-01-04T02:52:33.083Z,101165.25
2023-01-04T02:55:01.435Z,101158.38
2023-01-04T02:57:58.662Z,101158.41
2023-01-04T03:00:57.454Z,101149.81
2023-01-04T03:03:51.747Z,101145.94
2023-01-04T03:06:30.164Z,101136.56
2023-01-04T03:09:06.013Z,101133.50
2023-01-04T03:12:04.211Z,101123.69
2023-01-04T03:14:39.358Z,101124.31
2023-01-04T03:17:11.557Z,101112.31
2023-01-04T03:19:54.716Z,101107.38
2023-01-04T03:23:27.114Z,101108.94
2023-01-04T03:26:18.411Z,101109.78
2023-01-04T03:29:04.528Z,101099.72
2023-01-04T03:32:06.667Z,101084.91
2023-01-04T03:34:52.046Z,101073.13
2023-01-04T03:37:30.491Z,101070.75
2023-01-04T03:40:30.679Z,101054.41
2023-01-04T03:43:39.189Z,101049.31
2023-01-04T03:46:34.140Z,101036.16
2023-01-04T03:49:11.277Z,101043.13
2023-01-04T03:51:38.998Z,101028.78
2023-01-04T03:54:11.931Z,101028.13
2023-01-04T03:56:42.271Z,101019.19
2023-01-04T03:59:09.815Z,101006.50
2023-01-04T04:01:37.070Z,100997.66
2023-01-04T04:04:22.420Z,101001.75
2023-01-04T04:07:07.460Z,100991.34
2023-01-04T04:09:33.911Z,100975.66
2023-01-04T04:12:00.326Z,100978.09
2023-01-04T04:14:26.774Z,100967.63
2023-01-04T04:16:53.361Z,100964.22
2023-01-04T04:19:20.015Z,100968.38
2023-01-04T04:21:46.433Z,100956.59
2023-01-04T04:24:22.056Z,100958.19
2023-01-04T04:26:48.857Z,100954.44
2023-01-04T04:29:15.259Z,100941.72
2023-01-04T04:31:41.762Z,100950.56
2023-01-04T04:34:10.014Z,100945.06
2023-01-04T04:36:36.882Z,100932.13
2023-01-04T04:39:03.833Z,100933.19
2023-01-04T04:41:39.498Z,100919.59
2023-01-04T04:44:08.063Z,100903.91
2023-01-04T04:46:34.600Z,100916.63
2023-01-04T04:49:01.400Z,100907.34
2023-01-04T04:51:27.787Z,100896.53
2023-01-04T04:53:54.321Z,100890.28
2023-01-04T04:56:21.109Z,100908.31
2023-01-04T04:58:48.527Z,100890.91
2023-01-04T05:01:15.147Z,100893.09
2023-01-04T05:03:41.806Z,100885.50
2023-01-04T05:06:08.389Z,100899.28
2023-01-04T05:08:34.852Z,100885.63
2023-01-04T05:11:08.498Z,100875.25
2023-01-04T05:13:35.429Z,100865.53
2023-01-04T05:16:02.664Z,100859.03
2023-01-04T05:18:29.198Z,100858.97
2023-01-04T05:20:55.611Z,100854.56
2023-01-04T05:23:22.830Z,100848.22
2023-01-04T05:25:56.834Z,100837.94
2023-01-04T05:28:23.307Z,100840.91
2023-01-04T05:30:55.446Z,100847.84
2023-01-04T05:33:22.035Z,100826.94
2023-01-04T05:35:49.288Z,100824.25
2023-01-04T05:38:16.488Z,100806.09
2023-01-04T05:40:43.281Z,100815.06
2023-01-04T05:43:09.828Z,100808.53
2023-01-04T05:45:36.543Z,100782.97
2023-01-04T05:48:03.205Z,100781.97
2023-01-04T05:50:29.768Z,100779.72
2023-01-04T05:52:56.231Z,100777.47
2023-01-04T05:55:22.765Z,100759.88
2023-01-04T05:57:50.495Z,100760.47
2023-01-04T06:00:17.531Z,100752.50
2023-01-04T06:02:44.825Z,100751.41
2023-01-04T06:05:12.432Z,100745.13
2023-01-04T06:07:39.977Z,100751.41
2023-01-04T06:10:08.484Z,100730.81
2023-01-04T06:12:34.998Z,100714.38
2023-01-04T06:15:01.672Z,100714.31
2023-01-04T06:17:28.166Z,100715.31
2023-01-04T06:19:54.618Z,100703.41
2023-01-04T06:22:21.454Z,100673.00
2023-01-04T06:24:48.022Z,100681.38
2023-01-04T06:27:14.483Z,100669.69
2023-01-04T06:29:40.970Z,100691.94
2023-01-04T06:32:07.414Z,100675.16
2023-01-04T06:34:33.832Z,100680.75
2023-01-04T06:37:00.289Z,100664.41
2023-01-04T06:39:27.498Z,100654.00
2023-01-04T06:41:54.136Z,100645.78
2023-01-04T06:44:20.922Z,100665.78
2023-01-04T06:46:47.429Z,100649.03
2023-01-04T06:49:14.430Z,100649.97
2023-01-04T06:51:41.315Z,100646.97
2023-01-04T06:54:09.606Z,100639.03
2023-01-04T06:56:36.123Z,100616.75
2023-01-04T06:59:02.563Z,100619.78
2023-01-04T07:01:29.141Z,100605.16
2023-01-04T07:03:55.648Z,100606.75
2023-01-04T07:06:22.248Z,100612.41
2023-01-04T07:08:48.745Z,100587.47
2023-01-04T07:11:15.154Z,100574.09
2023-01-04T07:13:41.563Z,100575.28
2023-01-04T07:16:08.164Z,100573.41
2023-01-04T07:18:34.647Z,100560.75
2023-01-04T07:21:01.059Z,100581.94
2023-01-04T07:23:27.646Z,100565.97
2023-01-04T07:25:54.330Z,100571.28
2023-01-04T07:28:39.523Z,100573.47
2023-01-04T07:31:07.654Z,100578.78
2023-01-04T07:33:34.565Z,100564.22
2023-01-04T07:36:06.386Z,100566.38
2023-01-04T07:38:34.474Z,100562.22
2023-01-04T07:41:01.229Z,100573.81
2023-01-04T07:43:28.674Z,100569.63
2023-01-04T07:45:55.763Z,100569.38
2023-01-04T07:48:22.351Z,100560.25
2023-01-04T07:50:50.126Z,100560.56
2023-01-04T07:53:16.623Z,100560.06
2023-01-04T07:55:43.080Z,100555.69
2023-01-04T07:58:09.557Z,100545.00
2023-01-04T08:00:35.994Z,100550.78
2023-01-04T08:03:02.529Z,100548.19
2023-01-04T08:05:32.614Z,100557.53
2023-01-04T08:07:59.585Z,100557.41
2023-01-04T08:10:26.233Z,100553.00
2023-01-04T08:12:52.767Z,100563.13
2023-01-04T08:15:19.614Z,100575.09
2023-01-04T08:17:46.084Z,100558.69
2023-01-04T08:20:12.598Z,100553.56
2023-01-04T08:22:39.053Z,100556.38
2023-01-04T08:25:06.961Z,100579.03
2023-01-04T08:27:33.490Z,100570.50
2023-01-04T08:30:00.176Z,100559.06
2023-01-04T08:32:27.108Z,100561.19
2023-01-04T08:34:54.194Z,100556.31
2023-01-04T08:37:20.799Z,100573.72
2023-01-04T08:39:49.533Z,100584.31
2023-01-04T08:42:22.527Z,100582.72
2023-01-04T08:44:59.819Z,100592.72
2023-01-04T08:47:27.886Z,100566.56
2023-01-04T08:49:54.355Z,100568.25
2023-01-04T08:52:21.665Z,100575.69
2023-01-04T08:54:49.201Z,100592.53
2023-01-04T08:57:19.023Z,100590.03
2023-01-04T08:59:45.486Z,100584.69
2023-01-04T09:02:20.871Z,100581.09
2023-01-04T09:04:48.116Z,100575.75
2023-01-04T09:07:15.318Z,100581.09
2023-01-04T09:09:42.204Z,100576.28
2023-01-04T09:12:08.724Z,100573.53
2023-01-04T09:14:35.176Z,100564.78
2023-01-04T09:17:01.701Z,100573.41
2023-01-04T09:19:28.130Z,100557.59
2023-01-04T09:21:54.597Z,100563.06
2023-01-04T09:24:21.162Z,100554.75
2023-01-04T09:26:47.791Z,100552.31
2023-01-04T09:29:14.205Z,100533.78
2023-01-04T09:31:40.910Z,100534.00
2023-01-04T09:34:17.115Z,100534.47
2023-01-04T09:36:46.423Z,100537.03
2023-01-04T09:39:21.845Z,100529.75
2023-01-04T09:41:55.363Z,100520.41
2023-01-04T09:47:35.868Z,100523.66
2023-01-04T09:50:08.338Z,100519.66
2023-01-04T09:52:46.336Z,100516.78
2023-01-04T09:55:36.889Z,100515.47
2023-01-04T09:58:18.837Z,100506.38
2023-01-04T10:00:48.748Z,100499.84
2023-01-04T10:03:30.711Z,100486.75
2023-01-04T10:05:57.691Z,100502.13
2023-01-04T10:08:24.582Z,100502.97
2023-01-04T10:11:03.301Z,100496.56
2023-01-04T10:13:41.743Z,100496.13
2023-01-04T10:16:44.286Z,100485.31
2023-01-04T10:22:42.671Z,100485.75
2023-01-04T10:25:15.088Z,100464.91
2023-01-04T10:28:22.139Z,100461.97
2023-01-04T10:31:40.149Z,100463.38
2023-01-04T10:34:30.189Z,100456.53
2023-01-04T10:37:20.323Z,100458.72
2023-01-04T10:39:50.983Z,100434.00
2023-01-04T10:42:34.091Z,100436.88
2023-01-04T10:45:09.530Z,100438.84
2023-01-04T10:47:42.878Z,100430.72
2023-01-04T10:50:40.293Z,100445.97
2023-01-04T10:53:24.076Z,100432.03
2023-01-04T10:56:24.928Z,100431.03
2023-01-04T10:59:13.515Z,100432.81
2023-01-04T11:02:04.249Z,100425.41
2023-01-04T11:04:42.824Z,100428.75
2023-01-04T11:07:18.164Z,100423.72
2023-01-04T11:09:57.297Z,100422.50
2023-01-04T11:12:26.025Z,100414.81
2023-01-04T11:14:53.342Z,100413.03
2023-01-04T11:17:21.659Z,100417.09
2023-01-04T11:19:48.253Z,100425.13
2023-01-04T11:22:27.275Z,100417.38
2023-01-04T11:28:16.132Z,100418.69
2023-01-04T11:30:50.153Z,100398.22
2023-01-04T11:33:22.570Z,100400.03
2023-01-04T11:35:52.293Z,100392.16
2023-01-04T11:38:21.454Z,100398.44
2023-01-04T11:41:01.662Z,100378.72
2023-01-04T11:43:30.521Z,100380.72
2023-01-04T11:46:24.365Z,100380.25
2023-01-04T11:48:52.008Z,100378.25
2023-01-04T11:51:27.421Z,100381.56
2023-01-04T11:54:20.380Z,100374.56
2023-01-04T11:57:01.620Z,100366.91
2023-01-04T11:59:30.212Z,100360.25
2023-01-04T12:02:42.208Z,100364.06
2023-01-04T12:05:29.061Z,100359.38
2023-01-04T12:07:56.313Z,100348.09
2023-01-04T12:10:26.776Z,100344.47
2023-01-04T12:13:00.354Z,100348.59
2023-01-04T12:15:34.381Z,100344.94
2023-01-04T12:18:10.921Z,100342.00
2023-01-04T12:20:37.442Z,100346.00
2023-01-04T12:23:03.981Z,100331.28
2023-01-04T12:25:39.753Z,100337.56
2023-01-04T12:28:06.695Z,100323.63
2023-01-04T12:30:35.845Z,100328.16
2023-01-04T12:33:34.002Z,100321.34
2023-01-04T12:36:04.927Z,100310.38
2023-01-04T12:39:02.623Z,100310.50
2023-01-04T12:41:34.964Z,100307.72
2023-01-04T12:44:02.789Z,100303.69
2023-01-04T12:46:52.317Z,100293.28
2023-01-04T12:49:27.740Z,100297.88
2023-01-04T12:52:42.589Z,100300.91
2023-01-04T12:55:31.924Z,100278.28
2023-01-04T12:58:42.251Z,100270.34
2023-01-04T13:01:26.432Z,100286.13
2023-01-04T13:04:04.580Z,100273.00
2023-01-04T13:06:39.838Z,100282.28
2023-01-04T13:09:23.738Z,100281.63
2023-01-04T13:11:53.785Z,100271.16
2023-01-04T13:14:43.109Z,100269.16
2023-01-04T13:17:19.792Z,100272.69
2023-01-04T13:19:47.441Z,100271.50
2023-01-04T13:22:29.882Z,100267.59
2023-01-04T13:24:59.140Z,100250.38
2023-01-04T13:27:26.809Z,100258.81
2023-01-04T13:29:53.338Z,100260.06
2023-01-04T13:32:28.468Z,100242.59
2023-01-04T13:34:56.237Z,100244.34
2023-01-04T13:37:37.907Z,100248.53
2023-01-04T13:40:26.228Z,100249.09
2023-01-04T13:43:26.369Z,100248.56
2023-01-04T13:46:06.760Z,100241.06
2023-01-04T13:48:37.685Z,100247.34
2023-01-04T13:51:30.616Z,100243.19
2023-01-04T13:54:02.370Z,100229.56
2023-01-04T13:56:32.573Z,100227.47
2023-01-04T13:58:59.695Z,100230.06
2023-01-04T14:01:38.037Z,100215.84
2023-01-04T14:04:07.433Z,100204.41
2023-01-04T14:06:44.301Z,100208.03
2023-01-04T14:09:13.664Z,100207.31
2023-01-04T14:12:05.783Z,100213.91
2023-01-04T14:14:58.937Z,100208.44
2023-01-04T14:17:31.647Z,100204.88
2023-01-04T14:20:02.329Z,100213.06
2023-01-04T14:22:47.005Z,100195.88
2023-01-04T14:25:35.653Z,100213.09
2023-01-04T14:28:30.118Z,100202.06
2023-01-04T14:31:19.881Z,100187.63
2023-01-04T14:33:49.312Z,100175.66
2023-01-04T14:36:28.922Z,100182.72
2023-01-04T14:39:04.447Z,100184.84
2023-01-04T14:41:38.433Z,100180.59
2023-01-04T14:44:12.490Z,100176.78
2023-01-04T14:46:39.394Z,100185.59
2023-01-04T14:49:05.899Z,100187.66
2023-01-04T14:51:41.475Z,100174.53
2023-01-04T14:54:09.746Z,100176.94
2023-01-04T14:56:36.242Z,100177.72
2023-01-04T14:59:02.721Z,100176.81
2023-01-04T15:01:30.263Z,100176.34
2023-01-04T15:03:57.142Z,100180.16
2023-01-04T15:06:23.641Z,100168.06
2023-01-04T15:08:51.176Z,100165.50
2023-01-04T15:11:17.829Z,100169.75
2023-01-04T15:13:44.844Z,100170.50
2023-01-04T15:16:13.893Z,100159.25
2023-01-04T15:18:40.817Z,100160.41
2023-01-04T15:21:07.388Z,100167.19
2023-01-04T15:23:33.885Z,100160.69
2023-01-04T15:26:01.822Z,100174.34
2023-01-04T15:28:28.363Z,100178.25
2023-01-04T15:30:54.926Z,100187.94
2023-01-04T15:33:21.512Z,100189.50
2023-01-04T15:35:47.985Z,100198.84
2023-01-04T15:38:18.399Z,100190.88
2023-01-04T15:40:45.052Z,100185.81
2023-01-04T15:43:11.779Z,100170.03
2023-01-04T15:45:39.535Z,100167.00
2023-01-04T15:48:08.117Z,100156.38
2023-01-04T15:50:37.151Z,100167.41
2023-01-04T15:53:04.462Z,100172.97
2023-01-04T15:55:36.693Z,100154.38
2023-01-04T15:58:04.642Z,100150.88
2023-01-04T16:00:31.928Z,100151.28
2023-01-04T16:02:58.581Z,100134.41
2023-01-04T16:05:25.345Z,100146.38
2023-01-04T16:07:51.767Z,100124.50
2023-01-04T16:10:18.879Z,100146.56
2023-01-04T16:12:49.935Z,100144.47
2023-01-04T16:15:21.785Z,100144.31
2023-01-04T16:17:48.868Z,100135.50
2023-01-04T16:20:17.264Z,100143.25
2023-01-04T16:22:43.907Z,100151.81
2023-01-04T16:25:11.866Z,100149.06
2023-01-04T16:27:39.381Z,100140.41
2023-01-04T16:30:08.770Z,100144.88
2023-01-04T16:32:36.477Z,100146.56
2023-01-04T16:35:03.497Z,100135.56
2023-01-04T16:37:30.640Z,100139.81
2023-01-04T16:40:12.559Z,100136.75
2023-01-04T16:42:39.678Z,100146.28
2023-01-04T16:45:07.223Z,100136.69
2023-01-04T16:47:41.554Z,100133.75
2023-01-04T16:50:09.775Z,100127.91
2023-01-04T16:52:36.737Z,100134.03
2023-01-04T16:55:03.677Z,100136.25
2023-01-04T16:57:30.226Z,100121.84
2023-01-04T16:59:56.680Z,100134.56
2023-01-04T17:02:23.432Z,100118.22
2023-01-04T17:04:55.248Z,100118.91
2023-01-04T17:07:21.809Z,100116.88
2023-01-04T17:09:49.717Z,100107.63
2023-01-04T17:12:46.232Z,100109.38
2023-01-04T17:17:49.249Z,100104.34
2023-01-04T17:20:15.652Z,100094.63
2023-01-04T17:22:42.128Z,100093.88
2023-01-04T17:25:08.583Z,100083.69
2023-01-04T17:27:35.476Z,100079.13
2023-01-04T17:30:02.069Z,100086.66
2023-01-04T17:32:28.618Z,100091.03
2023-01-04T17:34:57.466Z,100096.75
2023-01-04T17:37:23.955Z,100093.22
2023-01-04T17:39:50.581Z,100086.53
2023-01-04T17:42:17.227Z,100100.34
2023-01-04T17:44:43.698Z,100088.69
2023-01-04T17:47:10.098Z,100089.44
2023-01-04T17:49:38.581Z,100081.91
2023-01-04T17:52:07.149Z,100081.88
2023-01-04T17:54:35.154Z,100083.06
2023-01-04T17:57:01.558Z,100085.25
2023-01-04T17:59:27.977Z,100076.50
2023-01-04T18:01:54.514Z,100081.34
2023-01-04T18:04:21.011Z,100073.44
2023-01-04T18:06:47.411Z,100078.91
2023-01-04T18:09:16.923Z,100062.09
2023-01-04T18:11:48.652Z,100069.34
2023-01-04T18:14:15.254Z,100082.28
2023-01-04T18:16:57.958Z,100073.84
2023-01-04T18:19:27.407Z,100059.41
2023-01-04T18:21:54.159Z,100075.03
2023-01-04T18:24:37.851Z,100073.63
2023-01-04T18:27:24.274Z,100084.50
2023-01-04T18:29:52.683Z,100087.91
2023-01-04T18:32:19.372Z,100075.75
2023-01-04T18:34:45.877Z,100084.38
2023-01-04T18:37:13.592Z,100095.22
2023-01-04T18:39:40.029Z,100092.16
2023-01-04T18:42:06.457Z,100097.81
2023-01-04T18:44:34.508Z,100095.22
2023-01-04T18:47:05.015Z,100094.13
2023-01-04T18:49:31.711Z,100096.84
2023-01-04T18:51:58.242Z,100090.75
2023-01-04T18:54:24.939Z,100078.88
2023-01-04T18:56:57.244Z,100089.16
2023-01-04T18:59:27.369Z,100080.66
2023-01-04T19:01:54.036Z,100083.38
2023-01-04T19:04:20.648Z,100077.69
2023-01-04T19:06:47.068Z,100085.34
2023-01-04T19:09:13.498Z,100066.47
2023-01-04T19:11:40.220Z,100070.16
2023-01-04T19:14:06.726Z,100048.19
2023-01-04T19:16:33.179Z,100038.31
2023-01-04T19:19:00.404Z,100036.78
2023-01-04T19:21:27.960Z,100030.13
2023-01-04T19:23:54.883Z,100031.06
2023-01-04T19:26:21.861Z,100036.09
2023-01-04T19:28:48.836Z,100026.94
2023-01-04T19:31:16.483Z,100027.19
2023-01-04T19:33:43.041Z,100034.44
2023-01-04T19:36:11.579Z,100027.09
2023-01-04T19:38:38.374Z,100032.41
2023-01-04T19:41:05.966Z,100031.19
2023-01-04T19:43:33.078Z,100033.34
2023-01-04T19:45:59.831Z,100036.28
2023-01-04T19:48:27.154Z,100036.56
2023-01-04T19:51:08.149Z,100039.16
2023-01-04T19:53:35.197Z,100032.53
2023-01-04T19:56:01.701Z,100040.06
2023-01-04T19:58:28.153Z,100047.66
2023-01-04T20:00:55.357Z,100044.63
2023-01-04T20:03:23.465Z,100033.91
2023-01-04T20:05:50.104Z,100035.69
2023-01-04T20:08:16.621Z,100029.75
2023-01-04T20:10:43.227Z,100021.16
2023-01-04T20:13:09.720Z,100019.13
2023-01-04T20:15:39.862Z,100019.34
2023-01-04T20:18:13.409Z,100014.16
2023-01-04T20:20:44.717Z,100018.63
2023-01-04T20:23:12.219Z,100026.13
2023-01-04T20:25:40.652Z,100035.41
2023-01-04T20:28:07.499Z,100042.97
2023-01-04T20:30:34.335Z,100036.53
2023-01-04T20:33:09.586Z,100037.97
2023-01-04T20:35:42.009Z,100028.31
2023-01-04T20:38:09.938Z,100028.44
2023-01-04T20:40:38.507Z,100032.41
2023-01-04T20:43:23.509Z,100030.47
2023-01-04T20:45:49.993Z,100024.41
2023-01-04T20:48:16.658Z,100034.66
2023-01-04T20:50:43.218Z,100032.44
2023-01-04T20:53:11.298Z,100037.88
2023-01-04T20:55:44.001Z,100030.97
2023-01-04T20:58:13.506Z,100038.66
2023-01-04T21:00:40.224Z,100046.34
2023-01-04T21:03:09.710Z,100037.47
2023-01-04T21:05:41.666Z,100034.13
2023-01-04T21:08:08.714Z,100036.06
2023-01-04T21:10:36.302Z,100049.25
2023-01-04T21:13:03.756Z,100047.66
2023-01-04T21:15:30.373Z,100044.63
2023-01-04T21:17:56.799Z,100040.53
2023-01-04T21:20:24.501Z,100051.41
2023-01-04T21:22:51.125Z,100035.19
2023-01-04T21:25:17.683Z,100040.91
2023-01-04T21:27:44.206Z,100031.56
2023-01-04T21:30:11.259Z,100043.59
2023-01-04T21:32:37.725Z,100044.00
2023-01-04T21:35:04.517Z,100052.03
2023-01-04T21:37:30.986Z,100044.16
2023-01-04T21:39:57.491Z,100050.31
2023-01-04T21:42:23.986Z,100057.56
2023-01-04T21:44:50.718Z,100047.88
2023-01-04T21:47:17.136Z,100054.31
2023-01-04T21:49:43.915Z,100056.09
2023-01-04T21:52:16.936Z,100066.59
2023-01-04T21:54:43.436Z,100059.47
2023-01-04T21:57:09.964Z,100060.81
2023-01-04T21:59:36.486Z,100053.44
2023-01-04T22:02:03.467Z,100075.59
2023-01-04T22:04:30.419Z,100063.53
2023-01-04T22:06:57.192Z,100066.03
2023-01-04T22:09:24.158Z,100057.59
2023-01-04T22:11:50.819Z,100061.09
2023-01-04T22:14:18.110Z,100070.19
2023-01-04T22:16:44.854Z,100065.47
2023-01-04T22:19:12.634Z,100077.38
2023-01-04T22:21:39.470Z,100070.09
2023-01-04T22:24:09.375Z,100075.56
2023-01-04T22:26:36.511Z,100079.78
2023-01-04T22:29:03.050Z,100082.66
2023-01-04T22:31:29.773Z,100083.97
2023-01-04T22:33:56.257Z,100064.69
2023-01-04T22:36:23.784Z,100080.47
2023-01-04T22:38:54.993Z,100074.59
2023-01-04T22:41:23.867Z,100080.97
2023-01-04T22:43:58.804Z,100093.28
2023-01-04T22:46:26.605Z,100084.63
2023-01-04T22:48:53.351Z,100091.88
2023-01-04T22:51:21.083Z,100096.38
2023-01-04T22:53:48.767Z,100090.06
2023-01-04T22:56:20.252Z,100086.78
2023-01-04T22:58:54.212Z,100088.75
2023-01-04T23:01:26.371Z,100091.19
2023-01-04T23:03:54.511Z,100101.28
2023-01-04T23:06:21.564Z,100104.97
2023-01-04T23:08:48.722Z,100099.56
2023-01-04T23:11:17.519Z,100098.81
2023-01-04T23:13:44.244Z,100106.81
2023-01-04T23:16:13.934Z,100101.59
2023-01-04T23:18:40.767Z,100105.16
2023-01-04T23:21:07.557Z,100114.44
2023-01-04T23:23:34.098Z,100114.25
2023-01-04T23:26:06.109Z,100123.56
2023-01-04T23:28:32.747Z,100112.81
2023-01-04T23:31:03.773Z,100112.22
2023-01-04T23:33:35.648Z,100123.16
2023-01-04T23:36:24.009Z,100114.97
2023-01-04T23:38:58.658Z,100114.34
2023-01-04T23:41:44.370Z,100110.00
2023-01-04T23:44:25.679Z,100124.94
2023-01-04T23:46:57.721Z,100107.75
2023-01-04T23:49:25.877Z,100109.22
2023-01-04T23:51:53.224Z,100110.94
2023-01-04T23:54:20.307Z,100111.38
2023-01-04T23:56:46.735Z,100118.13
2023-01-04T23:59:13.428Z,100117.75
